createdAt,value
2024-02-29T00:00:17.037Z,1010.6
2024-02-29T00:05:17.151Z,1010.5
2024-02-29T00:10:17.327Z,1010.6
2024-02-29T00:15:17.364Z,1010.5
2024-02-29T00:20:17.443Z,1010.4
2024-02-29T00:25:17.593Z,1010.3
2024-02-29T00:30:17.685Z,1010.2
2024-02-29T00:35:17.822Z,1010.1
2024-02-29T00:40:17.959Z,1010.1
2024-02-29T00:45:18.020Z,1010.0
2024-02-29T01:00:18.322Z,1009.8
2024-02-29T01:05:18.393Z,1009.6
2024-02-29T01:10:18.519Z,1009.6
2024-02-29T01:15:18.520Z,1009.5
2024-02-29T01:20:18.585Z,1009.5
2024-02-29T01:25:18.685Z,1009.4
2024-02-29T01:30:18.767Z,1009.3
2024-02-29T01:35:18.841Z,1009.3
2024-02-29T01:40:19.023Z,1009.2
2024-02-29T01:45:19.047Z,1009.1
2024-02-29T01:50:19.098Z,1009.0
2024-02-29T01:55:19.273Z,1009.0
2024-02-29T02:00:19.227Z,1008.8
2024-02-29T02:05:19.323Z,1008.7
2024-02-29T02:10:19.488Z,1008.5
2024-02-29T02:15:19.425Z,1008.4
2024-02-29T02:20:19.537Z,1008.4
2024-02-29T02:25:19.642Z,1008.3
2024-02-29T02:30:19.675Z,1008.3
2024-02-29T02:35:19.741Z,1008.1
2024-02-29T02:40:19.879Z,1008.1
2024-02-29T02:50:19.980Z,1008.0
2024-02-29T02:55:20.116Z,1007.8
2024-02-29T03:00:20.111Z,1007.7
2024-02-29T03:05:22.699Z,1007.7
2024-02-29T03:10:20.317Z,1007.6
2024-02-29T03:15:20.372Z,1007.5
2024-02-29T03:20:20.486Z,1007.5
2024-02-29T03:25:20.669Z,1007.4
2024-02-29T03:30:20.756Z,1007.3
2024-02-29T03:35:20.877Z,1007.2
2024-02-29T03:40:21.061Z,1007.2
2024-02-29T03:45:21.153Z,1007.0
2024-02-29T03:50:21.272Z,1007.0
2024-02-29T04:00:21.478Z,1006.8
2024-02-29T04:05:21.607Z,1006.7
2024-02-29T04:10:21.794Z,1006.6
2024-02-29T04:15:21.789Z,1006.6
2024-02-29T04:20:21.862Z,1006.6
2024-02-29T04:25:22.017Z,1006.5
2024-02-29T04:30:22.053Z,1006.5
2024-02-29T04:35:22.129Z,1006.4
2024-02-29T04:40:22.281Z,1006.3
2024-02-29T04:45:22.319Z,1006.3
2024-02-29T04:50:24.378Z,1006.2
2024-02-29T04:55:23.616Z,1006.2
2024-02-29T05:00:22.493Z,1006.1
2024-02-29T05:05:22.578Z,1006.0
2024-02-29T05:10:22.665Z,1005.9
2024-02-29T05:15:22.688Z,1005.9
2024-02-29T05:20:22.740Z,1005.8
2024-02-29T05:25:22.894Z,1005.7
2024-02-29T05:30:22.806Z,1005.7
2024-02-29T05:35:22.833Z,1005.6
2024-02-29T05:40:22.990Z,1005.5
2024-02-29T05:45:22.943Z,1005.5
2024-02-29T05:50:22.936Z,1005.3
2024-02-29T05:55:23.043Z,1005.3
2024-02-29T06:00:23.032Z,1005.2
2024-02-29T06:05:23.049Z,1005.1
2024-02-29T06:10:25.678Z,1005.0
2024-02-29T06:15:23.136Z,1005.0
2024-02-29T06:20:23.177Z,1005.0
2024-02-29T06:25:23.276Z,1004.9
2024-02-29T06:30:23.268Z,1004.8
2024-02-29T06:35:23.314Z,1004.8
2024-02-29T06:40:23.495Z,1004.7
2024-02-29T06:45:23.396Z,1004.7
2024-02-29T06:50:23.446Z,1004.6
2024-02-29T06:55:23.504Z,1004.6
2024-02-29T07:00:23.520Z,1004.5
2024-02-29T07:05:23.599Z,1004.6
2024-02-29T07:10:23.764Z,1004.5
2024-02-29T07:15:23.701Z,1004.5
2024-02-29T07:20:26.599Z,1004.5
2024-02-29T07:25:23.884Z,1004.5
2024-02-29T07:30:23.990Z,1004.5
2024-02-29T07:35:23.978Z,1004.4
2024-02-29T07:45:24.079Z,1004.4
2024-02-29T07:50:24.201Z,1004.3
2024-02-29T07:55:24.231Z,1004.3
2024-02-29T08:00:24.288Z,1004.2
2024-02-29T08:05:24.345Z,1004.1
2024-02-29T08:10:24.458Z,1004.1
2024-02-29T08:15:24.414Z,1004.1
2024-02-29T08:20:24.483Z,1004.1
2024-02-29T08:25:24.573Z,1004.2
2024-02-29T08:30:24.605Z,1004.2
2024-02-29T08:35:27.084Z,1004.3
2024-02-29T08:40:24.867Z,1004.4
2024-02-29T08:45:24.815Z,1004.4
2024-02-29T09:00:24.964Z,1004.5
2024-02-29T09:15:25.060Z,1004.4
2024-02-29T09:20:25.086Z,1004.5
2024-02-29T09:25:25.089Z,1004.4
2024-02-29T09:30:25.165Z,1004.2
2024-02-29T09:35:25.232Z,1004.2
2024-02-29T09:40:25.929Z,1004.2
2024-02-29T09:45:25.889Z,1004.2
2024-02-29T09:55:25.496Z,1004.1
2024-02-29T10:05:25.590Z,1004.1
2024-02-29T10:10:25.766Z,1004.0
2024-02-29T10:15:25.751Z,1003.8
2024-02-29T10:20:25.837Z,1003.8
2024-02-29T10:25:26.091Z,1003.8
2024-02-29T10:35:26.068Z,1003.8
2024-02-29T10:40:26.274Z,1003.7
2024-02-29T10:45:27.177Z,1003.6
2024-02-29T10:50:26.316Z,1003.6
2024-02-29T10:55:26.547Z,1003.5
2024-02-29T11:05:26.626Z,1003.5
2024-02-29T11:10:26.773Z,1003.5
2024-02-29T11:15:27.234Z,1003.5
2024-02-29T11:20:26.934Z,1003.6
2024-02-29T11:25:27.196Z,1003.6
2024-02-29T11:30:27.194Z,1003.6
2024-02-29T11:35:27.356Z,1003.5
2024-02-29T11:40:27.541Z,1003.4
2024-02-29T11:45:27.597Z,1003.4
2024-02-29T11:50:29.740Z,1003.3
2024-02-29T11:55:27.852Z,1003.4
2024-02-29T12:00:27.959Z,1003.3
2024-02-29T12:05:28.100Z,1003.3
2024-02-29T12:10:28.336Z,1003.2
2024-02-29T12:15:28.334Z,1003.2
2024-02-29T12:20:28.420Z,1003.2
2024-02-29T12:25:28.667Z,1003.2
2024-02-29T12:30:28.620Z,1003.2
2024-02-29T12:35:28.598Z,1003.1
2024-02-29T12:40:28.725Z,1003.0
2024-02-29T12:45:28.652Z,1003.0
2024-02-29T12:50:28.676Z,1003.0
2024-02-29T12:55:28.780Z,1002.9
2024-02-29T13:00:28.831Z,1002.9
2024-02-29T13:05:28.940Z,1002.9
2024-02-29T13:10:29.106Z,1002.7
2024-02-29T13:15:29.179Z,1002.6
2024-02-29T13:20:29.315Z,1002.6
2024-02-29T13:25:29.570Z,1002.7
2024-02-29T13:30:29.552Z,1002.7
2024-02-29T13:35:29.651Z,1002.6
2024-02-29T13:40:29.798Z,1002.6
2024-02-29T13:45:29.762Z,1002.5
2024-02-29T13:55:29.932Z,1002.5
2024-02-29T14:00:29.998Z,1002.5
2024-02-29T14:05:30.002Z,1002.6
2024-02-29T14:10:30.152Z,1002.7
2024-02-29T14:15:30.105Z,1002.6
2024-02-29T14:20:30.066Z,1002.5
2024-02-29T14:25:30.231Z,1002.4
2024-02-29T14:30:30.074Z,1002.4
2024-02-29T14:35:30.093Z,1002.3
2024-02-29T14:40:30.148Z,1002.1
2024-02-29T14:45:30.112Z,1002.2
2024-02-29T14:50:30.144Z,1002.2
2024-02-29T14:55:30.236Z,1002.2
2024-02-29T15:00:30.232Z,1002.2
2024-02-29T15:05:30.307Z,1002.3
2024-02-29T15:10:30.469Z,1002.4
2024-02-29T15:15:30.400Z,1002.3
2024-02-29T15:20:30.459Z,1002.3
2024-02-29T15:25:30.512Z,1002.3
2024-02-29T15:30:30.553Z,1002.4
2024-02-29T15:35:30.581Z,1002.5
2024-02-29T15:40:30.731Z,1002.6
2024-02-29T15:45:30.668Z,1002.6
2024-02-29T15:50:30.662Z,1002.6
2024-02-29T15:55:30.723Z,1002.7
2024-02-29T16:00:30.700Z,1002.7
2024-02-29T16:05:30.716Z,1002.5
2024-02-29T16:10:30.871Z,1002.4
2024-02-29T16:15:30.764Z,1002.4
2024-02-29T16:20:30.798Z,1002.4
2024-02-29T16:25:30.829Z,1002.4
2024-02-29T16:30:30.718Z,1002.5
2024-02-29T16:35:30.740Z,1002.5
2024-02-29T16:40:30.758Z,1002.5
2024-02-29T16:45:30.745Z,1002.5
2024-02-29T16:50:30.712Z,1002.6
2024-02-29T17:00:30.731Z,1002.5
2024-02-29T17:05:30.762Z,1002.5
2024-02-29T17:10:30.771Z,1002.5
2024-02-29T17:15:30.690Z,1002.5
2024-02-29T17:25:30.767Z,1002.4
2024-02-29T17:40:30.664Z,1002.4
2024-02-29T17:45:30.518Z,1002.4
2024-02-29T17:50:31.858Z,1002.4
2024-02-29T17:55:30.508Z,1002.4
2024-02-29T18:00:30.348Z,1002.5
2024-02-29T18:05:30.285Z,1002.5
2024-02-29T18:10:30.417Z,1002.5
2024-02-29T18:15:30.165Z,1002.5
2024-02-29T18:20:30.095Z,1002.5
2024-02-29T18:25:30.107Z,1002.5
2024-02-29T18:30:29.944Z,1002.6
2024-02-29T18:35:30.248Z,1002.5
2024-02-29T18:40:29.921Z,1002.5
2024-02-29T18:50:29.816Z,1002.5
2024-02-29T18:55:29.911Z,1002.5
2024-02-29T19:00:29.732Z,1002.5
2024-02-29T19:05:29.688Z,1002.6
2024-02-29T19:10:32.282Z,1002.6
2024-02-29T19:15:29.517Z,1002.7
2024-02-29T19:20:29.493Z,1002.7
2024-02-29T19:25:29.596Z,1002.7
2024-02-29T19:30:29.340Z,1002.6
2024-02-29T19:35:29.315Z,1002.5
2024-02-29T19:40:29.288Z,1002.5
2024-02-29T19:45:29.172Z,1002.4
2024-02-29T19:50:29.123Z,1002.5
2024-02-29T19:55:29.125Z,1002.5
2024-02-29T20:00:29.214Z,1002.5
2024-02-29T20:10:28.852Z,1002.5
2024-02-29T20:15:28.704Z,1002.6
2024-02-29T20:20:28.635Z,1002.6
2024-02-29T20:25:28.690Z,1002.6
2024-02-29T20:30:28.561Z,1002.7
2024-02-29T20:35:28.531Z,1002.6
2024-02-29T20:40:28.505Z,1002.6
2024-02-29T20:45:28.377Z,1002.6
2024-02-29T20:50:28.299Z,1002.6
2024-02-29T20:55:28.431Z,1002.5
2024-02-29T21:00:28.212Z,1002.5
2024-02-29T21:05:28.184Z,1002.5
2024-02-29T21:10:28.241Z,1002.5
2024-02-29T21:15:28.078Z,1002.4
2024-02-29T21:20:28.033Z,1002.5
2024-02-29T21:25:28.087Z,1002.5
2024-02-29T21:30:27.913Z,1002.4
2024-02-29T21:35:27.808Z,1002.4
2024-02-29T21:40:27.794Z,1002.5
2024-02-29T21:45:27.748Z,1002.4
2024-02-29T21:50:27.629Z,1002.5
2024-02-29T21:55:27.643Z,1002.5
2024-02-29T22:00:27.428Z,1002.5
2024-02-29T22:05:27.379Z,1002.4
2024-02-29T22:10:27.487Z,1002.4
2024-02-29T22:15:27.237Z,1002.4
2024-02-29T22:20:27.116Z,1002.4
2024-02-29T22:25:27.108Z,1002.4
2024-02-29T22:30:26.990Z,1002.4
2024-02-29T22:45:26.815Z,1002.3
2024-02-29T22:50:26.706Z,1002.2
2024-02-29T22:55:26.813Z,1002.1
2024-02-29T23:00:26.460Z,1002.0
2024-02-29T23:05:26.385Z,1001.9
2024-02-29T23:10:26.278Z,1001.7
2024-02-29T23:15:26.093Z,1001.7
2024-02-29T23:20:25.966Z,1001.6
2024-02-29T23:25:26.070Z,1001.6
2024-02-29T23:30:25.737Z,1001.6
2024-02-29T23:35:25.580Z,1001.6
2024-02-29T23:40:25.433Z,1001.5
2024-02-29T23:50:25.119Z,1001.5
2024-02-29T23:55:25.029Z,1001.5
